Impacts TAF Board
For situational awareness. Not to be used for flight planning purposes.
IDs:

KCHO - Charlottesville/Albe, VA, US

Issued at 2050 UTC 26 Feb 2020
Updated at 2320 UTC 26 Feb 2020
Potential Impact None Slight Moderate High
Time2300Z 27/00Z 27/01Z 27/02Z 27/03Z 27/04Z 27/05Z 27/06Z 27/07Z 27/08Z 27/09Z 27/10Z 27/11Z 27/12Z>>
Type OBS PRVL PRVL PRVL PRVL PRVL PRVL PRVL PRVL PRVL PRVL PRVL PRVL PRVL
VIS 5 5 5 4 5 5 >6 >6 >6 >6 >6 >6 >6 >6
CIG 5 8 8 15 35 35 60 60 -- -- -- -- -- --
Cover OVC OVC OVC OVC OVC OVC BKN BKN SCT SCT SCT SCT SCT SCT
FltCat IFR IFR IFR MVFR MVFR MVFR VFR VFR VFR VFR VFR VFR VFR VFR
WX BR BR BR SHRA SHRA SHRA -- -- -- -- -- -- -- --
WDir VRB 110 110 230 260 260 260 260 260 260 260 260 260 260
WSpd 0 5 5 7 10 10 10 10 8 8 8 8 8 8
WGst -- -- -- -- 21 21 17 17 -- -- -- -- -- --
Raw TAF
KCHO 262050Z 2621/2718 15003KT 2SM BR BKN008 OVC015
  FM262300 11005KT 5SM BR SCT003 OVC008
  FM270200 23007KT 4SM SHRA OVC015
  FM270300 26010G21KT 5SM SHRA OVC035
  FM270500 26010G17KT P6SM BKN060
  FM270700 26008KT P6SM SCT200
  FM271500 28015G25KT P6SM FEW250


Raw METAR
KCHO 262300Z 00000KT 5SM BR OVC005 12/11 A2966 RMK AO2 CIG 002V011 T01220111
KCHO 262253Z 08004KT 2SM BR OVC005 12/11 A2966 RMK AO2 CIG 002V011 SLP043 T01220111
KCHO 262153Z 05003KT 2SM BR OVC003 12/11 A2969 RMK AO2 RAE30 SLP053 P0000 T01220106
KCHO 262120Z 00000KT 2SM -RA BR OVC003 12/11 A2973 RMK AO2 P0000 T01220106
KCHO 262053Z 00000KT 3SM -RA BR OVC009 12/11 A2973 RMK AO2 RAE09B32 CIG 007V012 SLP064 P0001 60002 T01220106 56033
KCHO 262045Z 00000KT 2 1/2SM -RA BR BKN009 OVC014 12/11 A2973 RMK AO2 RAE09B32 CIG 007V011 P0001 T01220106

METAR Board
Radar Display
Forecast Discussion
For situational awareness. Not to be used for flight planning purposes.